createdAt,value
2019-02-26T00:00:44.922Z,55.20
2019-02-26T00:03:11.429Z,30.60
2019-02-26T00:05:40.459Z,28.85
2019-02-26T00:08:09.547Z,19.20
2019-02-26T00:10:39.080Z,18.37
2019-02-26T00:13:08.155Z,16.45
2019-02-26T00:15:38.517Z,18.02
2019-02-26T00:18:11.482Z,17.87
2019-02-26T00:20:39.664Z,19.92
2019-02-26T00:23:09.394Z,21.35
2019-02-26T00:25:38.091Z,18.45
2019-02-26T00:28:06.761Z,38.98
2019-02-26T00:30:37.460Z,33.10
2019-02-26T00:33:05.859Z,32.20
2019-02-26T00:35:34.788Z,29.80
2019-02-26T00:38:03.442Z,27.40
2019-02-26T00:40:34.341Z,36.88
2019-02-26T00:43:04.781Z,34.10
2019-02-26T00:45:34.046Z,47.50
2019-02-26T00:48:03.898Z,42.67
2019-02-26T00:50:34.942Z,36.10
2019-02-26T00:53:03.985Z,37.20
2019-02-26T00:55:34.724Z,28.60
2019-02-26T00:58:05.734Z,27.02
2019-02-26T01:00:35.478Z,27.32
2019-02-26T01:03:05.905Z,28.57
2019-02-26T01:05:36.250Z,24.65
2019-02-26T01:08:07.471Z,30.12
2019-02-26T01:10:39.106Z,30.15
2019-02-26T01:13:07.421Z,30.90
2019-02-26T01:15:36.191Z,24.45
2019-02-26T01:18:05.642Z,23.92
2019-02-26T01:20:34.494Z,32.55
2019-02-26T01:23:03.503Z,29.48
2019-02-26T01:25:32.503Z,31.45
2019-02-26T01:28:01.429Z,29.42
2019-02-26T01:30:31.913Z,32.35
2019-02-26T01:33:03.235Z,28.23
2019-02-26T01:35:32.929Z,28.25
2019-02-26T01:38:01.555Z,31.45
2019-02-26T01:40:30.746Z,25.52
2019-02-26T01:43:02.601Z,28.50
2019-02-26T01:45:32.316Z,22.80
2019-02-26T01:48:00.611Z,25.15
2019-02-26T01:50:30.942Z,23.10
2019-02-26T01:53:01.073Z,23.00
2019-02-26T01:55:29.824Z,31.17
2019-02-26T01:57:59.274Z,21.90
2019-02-26T02:00:28.171Z,21.35
2019-02-26T02:02:57.224Z,24.60
2019-02-26T02:05:28.589Z,24.23
2019-02-26T02:07:56.595Z,24.60
2019-02-26T02:10:25.267Z,20.55
2019-02-26T02:12:57.363Z,23.45
2019-02-26T02:15:24.593Z,23.85
2019-02-26T02:17:56.639Z,25.05
2019-02-26T02:20:24.025Z,20.77
2019-02-26T02:22:52.705Z,22.07
2019-02-26T02:25:22.099Z,25.05
2019-02-26T02:27:54.169Z,20.65
2019-02-26T02:30:26.546Z,21.75
2019-02-26T02:32:55.056Z,22.35
2019-02-26T02:35:22.364Z,23.38
2019-02-26T02:37:53.720Z,24.20
2019-02-26T02:40:21.465Z,24.45
2019-02-26T02:42:50.473Z,25.60
2019-02-26T02:45:21.013Z,24.20
2019-02-26T02:47:54.665Z,22.48
2019-02-26T02:50:20.493Z,23.22
2019-02-26T02:52:50.790Z,24.55
2019-02-26T02:55:19.788Z,23.55
2019-02-26T02:57:52.378Z,24.52
2019-02-26T03:00:22.726Z,24.72
2019-02-26T03:02:52.856Z,24.75
2019-02-26T03:05:20.362Z,21.77
2019-02-26T03:07:51.646Z,22.60
2019-02-26T03:10:19.725Z,22.65
2019-02-26T03:12:53.831Z,24.30
2019-02-26T03:15:21.207Z,24.23
2019-02-26T03:17:49.597Z,23.47
2019-02-26T03:20:18.422Z,25.05
2019-02-26T03:22:49.213Z,25.05
2019-02-26T03:25:20.935Z,22.58
2019-02-26T03:27:48.674Z,21.87
2019-02-26T03:30:26.295Z,21.80
2019-02-26T03:32:55.811Z,21.93
2019-02-26T03:35:23.068Z,20.77
2019-02-26T03:37:52.380Z,18.62
2019-02-26T03:40:24.187Z,22.80
2019-02-26T03:42:51.508Z,19.07
2019-02-26T03:45:23.853Z,22.45
2019-02-26T03:47:50.887Z,22.05
2019-02-26T03:50:19.703Z,25.15
2019-02-26T03:52:48.721Z,21.93
2019-02-26T03:55:18.727Z,29.35
2019-02-26T03:57:53.286Z,23.00
2019-02-26T04:00:20.348Z,24.18
2019-02-26T04:02:51.824Z,25.37
2019-02-26T04:05:20.471Z,22.32
2019-02-26T04:07:52.294Z,29.95
2019-02-26T04:10:19.602Z,26.45
2019-02-26T04:12:51.831Z,31.73
2019-02-26T04:15:18.851Z,38.67
2019-02-26T04:17:47.637Z,39.48
2019-02-26T04:20:17.033Z,36.80
2019-02-26T04:22:48.316Z,47.35
2019-02-26T04:25:38.047Z,43.58
2019-02-26T04:28:37.058Z,38.85
2019-02-26T04:31:47.110Z,29.40
2019-02-26T04:34:40.114Z,29.67
2019-02-26T04:37:30.713Z,29.82
2019-02-26T04:40:40.996Z,30.25
2019-02-26T04:43:34.121Z,25.62
2019-02-26T04:46:31.587Z,29.92
2019-02-26T04:48:59.595Z,26.87
2019-02-26T04:51:28.276Z,28.32
2019-02-26T04:53:59.536Z,25.92
2019-02-26T04:56:31.314Z,29.67
2019-02-26T04:58:58.814Z,30.85
2019-02-26T05:01:27.745Z,30.25
2019-02-26T05:03:56.433Z,30.57
2019-02-26T05:06:25.329Z,27.32
2019-02-26T05:08:56.866Z,30.10
2019-02-26T05:11:31.354Z,25.37
2019-02-26T05:13:55.763Z,24.25
2019-02-26T05:16:26.678Z,25.92
2019-02-26T05:18:57.910Z,24.67
2019-02-26T05:21:27.065Z,24.50
2019-02-26T05:23:57.650Z,27.35
2019-02-26T05:26:26.251Z,21.12
2019-02-26T05:28:55.239Z,21.75
2019-02-26T05:31:24.091Z,21.07
2019-02-26T05:33:55.321Z,20.30
2019-02-26T05:36:23.166Z,22.95
2019-02-26T05:38:54.671Z,22.30
2019-02-26T05:41:22.751Z,24.55
2019-02-26T05:43:55.312Z,25.82
2019-02-26T05:46:24.560Z,27.15
2019-02-26T05:48:52.336Z,27.10
2019-02-26T05:51:21.630Z,26.93
2019-02-26T05:53:50.506Z,29.12
2019-02-26T05:56:20.745Z,28.10
2019-02-26T05:58:49.591Z,37.58
2019-02-26T06:01:19.339Z,42.73
2019-02-26T06:03:49.701Z,50.20
2019-02-26T06:06:19.290Z,50.08
2019-02-26T06:08:47.973Z,50.65
2019-02-26T06:11:17.153Z,51.08
2019-02-26T06:13:46.154Z,54.10
2019-02-26T06:16:15.155Z,49.42
2019-02-26T06:18:46.524Z,41.05
2019-02-26T06:21:16.530Z,31.23
2019-02-26T06:23:54.138Z,30.23
2019-02-26T06:26:22.878Z,32.50
2019-02-26T06:28:53.033Z,35.50
2019-02-26T06:31:24.974Z,42.13
2019-02-26T06:33:53.763Z,45.05
2019-02-26T06:36:23.478Z,42.88
2019-02-26T06:38:54.078Z,40.30
2019-02-26T06:41:23.822Z,44.77
2019-02-26T06:43:55.077Z,43.10
2019-02-26T06:46:26.236Z,44.60
2019-02-26T06:48:54.555Z,45.67
2019-02-26T06:51:24.326Z,43.83
2019-02-26T06:53:54.796Z,38.35
2019-02-26T06:56:24.186Z,38.63
2019-02-26T06:58:53.346Z,46.55
2019-02-26T07:01:22.247Z,36.28
2019-02-26T07:03:51.170Z,36.38
2019-02-26T07:06:22.782Z,42.58
2019-02-26T07:08:51.175Z,39.65
2019-02-26T07:11:21.147Z,39.42
2019-02-26T07:13:49.907Z,46.80
2019-02-26T07:16:20.616Z,55.88
2019-02-26T07:18:49.446Z,122.92
2019-02-26T07:21:18.232Z,70.80
2019-02-26T07:23:47.021Z,50.45
2019-02-26T07:26:16.628Z,35.43
2019-02-26T07:28:48.694Z,38.17
2019-02-26T07:31:17.789Z,34.88
2019-02-26T07:33:46.471Z,29.50
2019-02-26T07:36:16.156Z,33.50
2019-02-26T07:38:48.545Z,37.17
2019-02-26T07:41:18.848Z,49.03
2019-02-26T07:43:49.304Z,35.88
2019-02-26T07:46:19.287Z,28.30
2019-02-26T07:48:48.836Z,22.13
2019-02-26T07:51:19.109Z,22.65
2019-02-26T07:53:49.310Z,22.35
2019-02-26T07:56:18.278Z,30.82
2019-02-26T07:58:47.510Z,24.47
2019-02-26T08:01:16.455Z,23.57
2019-02-26T08:03:46.999Z,22.75
2019-02-26T08:06:15.883Z,21.55
2019-02-26T08:08:46.623Z,27.30
2019-02-26T08:11:15.022Z,23.70
2019-02-26T08:13:43.672Z,23.85
2019-02-26T08:16:12.327Z,24.65
2019-02-26T08:18:41.421Z,23.47
2019-02-26T08:21:10.397Z,22.48
2019-02-26T08:23:41.233Z,20.35
2019-02-26T08:26:10.034Z,23.05
2019-02-26T08:28:41.406Z,23.18
2019-02-26T08:31:13.334Z,25.37
2019-02-26T08:33:40.077Z,20.52
2019-02-26T08:36:08.729Z,21.95
2019-02-26T08:38:38.060Z,22.02
2019-02-26T08:41:06.744Z,25.90
2019-02-26T08:43:35.415Z,23.87
2019-02-26T08:46:04.169Z,23.40
2019-02-26T08:48:32.854Z,21.68
2019-02-26T08:51:05.428Z,20.50
2019-02-26T08:53:32.199Z,29.50
2019-02-26T08:56:03.779Z,27.27
2019-02-26T08:58:31.597Z,28.07
2019-02-26T09:01:00.261Z,24.70
2019-02-26T09:03:28.943Z,30.50
2019-02-26T09:06:10.189Z,22.90
2019-02-26T09:08:30.179Z,28.10
2019-02-26T09:11:00.724Z,27.52
2019-02-26T09:13:30.789Z,26.05
2019-02-26T09:16:01.068Z,31.73
2019-02-26T09:18:31.499Z,29.70
2019-02-26T09:21:01.076Z,30.80
2019-02-26T09:23:30.548Z,26.57
2019-02-26T09:26:02.582Z,30.72
2019-02-26T09:28:32.125Z,27.65
2019-02-26T09:31:01.843Z,28.67
2019-02-26T09:33:33.031Z,29.80
2019-02-26T09:36:01.672Z,31.00
2019-02-26T09:38:31.769Z,26.70
2019-02-26T09:41:00.720Z,27.60
2019-02-26T09:43:29.403Z,27.17
2019-02-26T09:45:58.071Z,27.27
2019-02-26T09:48:26.757Z,26.70
2019-02-26T09:50:55.461Z,24.82
2019-02-26T09:53:24.459Z,25.45
2019-02-26T09:55:53.132Z,23.02
2019-02-26T09:58:23.389Z,25.23
2019-02-26T10:00:54.019Z,25.37
2019-02-26T10:03:23.189Z,23.40
2019-02-26T10:05:53.254Z,22.15
2019-02-26T10:08:24.803Z,26.40
2019-02-26T10:10:55.006Z,25.95
2019-02-26T10:13:25.198Z,24.47
2019-02-26T10:15:56.292Z,24.43
2019-02-26T10:18:25.686Z,25.82
2019-02-26T10:20:55.659Z,27.32
2019-02-26T10:23:26.262Z,26.42
2019-02-26T10:25:57.505Z,26.25
2019-02-26T10:28:25.115Z,28.47
2019-02-26T10:30:55.025Z,26.40
2019-02-26T10:33:24.602Z,26.50
2019-02-26T10:35:53.289Z,27.65
2019-02-26T10:38:24.079Z,27.95
2019-02-26T10:40:56.205Z,30.23
2019-02-26T10:43:23.037Z,31.25
2019-02-26T10:45:54.786Z,24.37
2019-02-26T10:48:25.125Z,20.77
2019-02-26T10:50:53.730Z,20.80
2019-02-26T10:53:22.776Z,23.67
2019-02-26T10:55:51.856Z,25.75
2019-02-26T10:58:20.515Z,24.23
2019-02-26T11:00:55.296Z,26.25
2019-02-26T11:03:24.317Z,24.87
2019-02-26T11:05:53.277Z,25.12
2019-02-26T11:08:26.179Z,29.90
2019-02-26T11:10:52.602Z,27.27
2019-02-26T11:13:24.917Z,23.02
2019-02-26T11:15:53.969Z,27.52
2019-02-26T11:18:23.396Z,27.48
2019-02-26T11:20:55.279Z,26.27
2019-02-26T11:23:30.416Z,24.80
2019-02-26T11:25:53.570Z,28.50
2019-02-26T11:28:22.252Z,30.20
2019-02-26T11:30:54.017Z,27.82
2019-02-26T11:33:21.678Z,27.00
2019-02-26T11:35:51.474Z,29.20
2019-02-26T11:38:22.154Z,26.62
2019-02-26T11:40:50.879Z,26.20
2019-02-26T11:43:22.928Z,25.65
2019-02-26T11:45:49.997Z,26.30
2019-02-26T11:48:20.674Z,26.35
2019-02-26T11:50:49.334Z,27.93
2019-02-26T11:53:18.001Z,25.08
2019-02-26T11:55:49.354Z,25.25
2019-02-26T11:58:19.882Z,25.52
2019-02-26T12:00:57.363Z,24.85
2019-02-26T12:03:29.753Z,24.37
2019-02-26T12:06:00.567Z,23.95
2019-02-26T12:08:27.872Z,24.00
2019-02-26T12:11:01.040Z,25.05
2019-02-26T12:13:27.780Z,31.50
2019-02-26T12:15:56.822Z,25.97
2019-02-26T12:18:25.805Z,21.42
2019-02-26T12:20:54.801Z,25.60
2019-02-26T12:23:23.906Z,25.43
2019-02-26T12:25:55.349Z,23.38
2019-02-26T12:28:25.184Z,24.80
2019-02-26T12:30:53.457Z,22.80
2019-02-26T12:33:23.335Z,25.35
2019-02-26T12:35:52.275Z,25.62
2019-02-26T12:38:21.480Z,32.48
2019-02-26T12:40:53.409Z,28.55
2019-02-26T12:43:21.171Z,25.50
2019-02-26T12:45:51.446Z,29.18
2019-02-26T12:48:22.764Z,27.85
2019-02-26T12:50:52.142Z,24.87
2019-02-26T12:53:23.553Z,27.02
2019-02-26T12:55:51.503Z,25.15
2019-02-26T12:58:21.396Z,25.97
2019-02-26T13:00:50.825Z,28.27
2019-02-26T13:03:22.632Z,23.77
2019-02-26T13:05:51.740Z,27.23
2019-02-26T13:08:24.120Z,32.98
2019-02-26T13:10:57.746Z,29.55
2019-02-26T13:13:22.433Z,25.55
2019-02-26T13:15:51.359Z,23.42
2019-02-26T13:18:20.055Z,26.85
2019-02-26T13:20:52.349Z,32.10
2019-02-26T13:23:20.587Z,27.10
2019-02-26T13:25:51.141Z,34.13
2019-02-26T13:28:19.846Z,29.63
2019-02-26T13:30:48.544Z,27.40
2019-02-26T13:33:18.875Z,28.55
2019-02-26T13:35:52.232Z,26.70
2019-02-26T13:38:24.527Z,27.48
2019-02-26T13:40:49.094Z,24.87
2019-02-26T13:43:18.127Z,25.88
2019-02-26T13:45:47.398Z,27.93
2019-02-26T13:48:16.959Z,25.80
2019-02-26T13:50:45.701Z,29.12
2019-02-26T13:53:14.402Z,29.20
2019-02-26T13:55:43.055Z,30.25
2019-02-26T13:58:12.286Z,28.57
2019-02-26T14:00:41.447Z,29.42
2019-02-26T14:03:10.130Z,27.22
2019-02-26T14:05:38.798Z,28.17
2019-02-26T14:08:08.063Z,25.02
2019-02-26T14:10:37.244Z,27.85
2019-02-26T14:13:06.480Z,28.55
2019-02-26T14:15:35.520Z,25.62
2019-02-26T14:18:04.344Z,26.82
2019-02-26T14:20:33.313Z,26.65
2019-02-26T14:23:01.998Z,25.45
2019-02-26T14:25:30.663Z,22.32
2019-02-26T14:27:59.767Z,23.22
2019-02-26T14:30:28.860Z,19.20
2019-02-26T14:32:57.848Z,20.75
2019-02-26T14:35:26.593Z,20.32
2019-02-26T14:37:55.858Z,19.82
2019-02-26T14:40:24.509Z,21.48
2019-02-26T14:42:53.187Z,20.12
2019-02-26T14:45:21.948Z,16.60
2019-02-26T14:47:51.019Z,16.70
2019-02-26T14:50:19.907Z,16.42
2019-02-26T14:52:48.649Z,13.35
2019-02-26T14:55:17.458Z,13.65
2019-02-26T14:57:46.813Z,14.33
2019-02-26T15:00:22.521Z,17.00
2019-02-26T15:02:51.577Z,15.05
2019-02-26T15:05:20.394Z,15.20
2019-02-26T15:07:49.383Z,16.90
2019-02-26T15:10:18.142Z,14.55
2019-02-26T15:12:47.120Z,18.45
2019-02-26T15:15:16.233Z,18.55
2019-02-26T15:17:45.256Z,21.17
2019-02-26T15:20:15.556Z,20.77
2019-02-26T15:22:44.219Z,25.05
2019-02-26T15:25:15.860Z,22.85
2019-02-26T15:27:44.530Z,21.17
2019-02-26T15:30:14.638Z,25.75
2019-02-26T15:32:43.793Z,27.13
2019-02-26T15:35:13.055Z,27.25
2019-02-26T15:37:41.902Z,24.07
2019-02-26T15:40:11.440Z,20.15
2019-02-26T15:42:41.640Z,18.57
2019-02-26T15:45:16.087Z,17.52
2019-02-26T15:47:47.092Z,19.93
2019-02-26T15:50:15.979Z,22.87
2019-02-26T15:52:44.749Z,27.27
2019-02-26T15:55:18.384Z,24.50
2019-02-26T15:57:47.040Z,25.97
2019-02-26T16:00:18.469Z,25.52
2019-02-26T16:02:47.965Z,31.20
2019-02-26T16:05:19.007Z,25.45
2019-02-26T16:07:47.659Z,24.07
2019-02-26T16:10:19.488Z,21.85
2019-02-26T16:12:49.124Z,25.57
2019-02-26T16:15:18.226Z,25.55
2019-02-26T16:17:47.128Z,27.10
2019-02-26T16:20:17.450Z,24.63
2019-02-26T16:22:46.843Z,23.90
2019-02-26T16:25:15.604Z,24.75
2019-02-26T16:27:44.253Z,23.07
2019-02-26T16:30:16.085Z,26.73
2019-02-26T16:35:15.030Z,29.60
2019-02-26T16:37:43.716Z,22.80
2019-02-26T16:40:12.973Z,27.20
2019-02-26T16:42:44.361Z,26.70
2019-02-26T16:45:14.829Z,31.05
2019-02-26T16:47:45.979Z,28.40
2019-02-26T16:50:15.581Z,31.42
2019-02-26T16:52:44.317Z,29.45
2019-02-26T16:55:14.140Z,30.17
2019-02-26T16:57:43.836Z,35.08
2019-02-26T17:00:15.651Z,26.95
2019-02-26T17:02:44.981Z,30.20
2019-02-26T17:05:14.973Z,33.02
2019-02-26T17:07:43.852Z,30.82
2019-02-26T17:10:14.915Z,33.23
2019-02-26T17:12:45.228Z,29.67
2019-02-26T17:15:17.915Z,30.35
2019-02-26T17:17:46.893Z,26.52
2019-02-26T17:20:15.648Z,26.70
2019-02-26T17:22:45.010Z,27.95
2019-02-26T17:25:13.844Z,28.65
2019-02-26T17:27:42.782Z,25.72
2019-02-26T17:30:12.167Z,26.05
2019-02-26T17:32:40.846Z,25.43
2019-02-26T17:35:09.755Z,29.18
2019-02-26T17:37:41.450Z,27.25
2019-02-26T17:40:10.284Z,24.32
2019-02-26T17:42:38.938Z,31.20
2019-02-26T17:45:09.903Z,31.73
2019-02-26T17:47:38.805Z,36.60
2019-02-26T17:50:12.025Z,30.60
2019-02-26T17:52:41.054Z,33.42
2019-02-26T17:55:10.147Z,28.07
2019-02-26T17:57:39.193Z,24.40
2019-02-26T18:00:10.652Z,29.00
2019-02-26T18:02:39.337Z,35.75
2019-02-26T18:05:10.656Z,35.50
2019-02-26T18:07:39.102Z,27.23
2019-02-26T18:10:13.025Z,26.15
2019-02-26T18:12:42.632Z,24.60
2019-02-26T18:15:16.725Z,28.02
2019-02-26T18:17:43.593Z,27.85
2019-02-26T18:20:14.454Z,25.65
2019-02-26T18:22:43.218Z,24.60
2019-02-26T18:25:12.939Z,25.08
2019-02-26T18:27:41.848Z,20.72
2019-02-26T18:30:15.146Z,20.65
2019-02-26T18:32:49.927Z,19.92
2019-02-26T18:35:14.285Z,18.90
2019-02-26T18:37:46.397Z,22.77
2019-02-26T18:40:14.464Z,23.80
2019-02-26T18:42:43.178Z,23.05
2019-02-26T18:45:19.999Z,22.32
2019-02-26T18:47:48.691Z,22.65
2019-02-26T18:50:17.610Z,22.22
2019-02-26T18:52:46.366Z,24.55
2019-02-26T18:55:16.014Z,35.43
2019-02-26T18:57:45.011Z,40.33
2019-02-26T19:00:17.198Z,40.17
2019-02-26T19:02:45.972Z,29.60
2019-02-26T19:05:14.751Z,30.72
2019-02-26T19:07:43.400Z,27.02
2019-02-26T19:10:17.514Z,37.15
2019-02-26T19:12:43.844Z,33.78
2019-02-26T19:15:14.811Z,28.90
2019-02-26T19:17:45.981Z,39.53
2019-02-26T19:20:15.592Z,40.45
2019-02-26T19:22:44.825Z,61.92
2019-02-26T19:25:13.661Z,42.15
2019-02-26T19:27:42.344Z,80.07
2019-02-26T19:30:13.589Z,46.33
2019-02-26T19:32:42.591Z,39.38
2019-02-26T19:35:12.496Z,41.35
2019-02-26T19:37:41.496Z,41.42
2019-02-26T19:40:12.266Z,40.00
2019-02-26T19:42:42.594Z,32.05
2019-02-26T19:45:12.004Z,33.70
2019-02-26T19:47:41.081Z,32.15
2019-02-26T19:50:11.842Z,30.17
2019-02-26T19:52:41.122Z,34.75
2019-02-26T19:55:15.656Z,39.40
2019-02-26T19:57:43.947Z,41.05
2019-02-26T20:00:12.972Z,42.15
2019-02-26T20:02:43.200Z,42.15
2019-02-26T20:05:12.302Z,54.70
2019-02-26T20:07:41.691Z,51.83
2019-02-26T20:10:14.746Z,41.53
2019-02-26T20:12:41.824Z,35.73
2019-02-26T20:15:13.191Z,41.25
2019-02-26T20:17:42.432Z,34.00
2019-02-26T20:20:12.182Z,44.33
2019-02-26T20:22:41.127Z,41.45
2019-02-26T20:25:12.527Z,42.98
2019-02-26T20:27:41.387Z,41.40
2019-02-26T20:30:12.373Z,42.45
2019-02-26T20:32:41.858Z,48.42
2019-02-26T20:35:11.944Z,57.13
2019-02-26T20:37:41.588Z,51.00
2019-02-26T20:40:16.125Z,52.35
2019-02-26T20:42:43.169Z,58.55
2019-02-26T20:45:17.837Z,53.95
2019-02-26T20:47:43.828Z,53.70
2019-02-26T20:50:12.858Z,53.70
2019-02-26T20:52:41.623Z,53.85
2019-02-26T20:55:12.207Z,49.30
2019-02-26T20:57:40.895Z,47.58
2019-02-26T21:00:12.514Z,47.58
2019-02-26T21:02:41.442Z,36.48
2019-02-26T21:05:10.354Z,34.85
2019-02-26T21:07:39.185Z,31.50
2019-02-26T21:10:08.507Z,33.15
2019-02-26T21:12:37.199Z,30.43
2019-02-26T21:15:08.259Z,34.58
2019-02-26T21:17:37.185Z,31.95
2019-02-26T21:20:07.762Z,31.60
2019-02-26T21:22:37.299Z,30.30
2019-02-26T21:25:08.513Z,34.08
2019-02-26T21:27:36.821Z,29.57
2019-02-26T21:30:06.030Z,30.62
2019-02-26T21:32:34.982Z,30.55
2019-02-26T21:35:04.046Z,69.62
2019-02-26T21:37:33.363Z,40.58
2019-02-26T21:40:02.234Z,51.95
2019-02-26T21:42:30.910Z,29.15
2019-02-26T21:44:59.589Z,40.25
2019-02-26T21:47:28.590Z,39.30
2019-02-26T21:49:57.280Z,34.80
2019-02-26T21:52:25.961Z,40.17
2019-02-26T21:54:57.737Z,44.98
2019-02-26T21:57:25.050Z,44.70
2019-02-26T21:59:54.811Z,42.93
2019-02-26T22:02:23.668Z,38.98
2019-02-26T22:04:52.847Z,42.58
2019-02-26T22:07:21.801Z,38.55
2019-02-26T22:09:52.107Z,36.95
2019-02-26T22:12:21.853Z,56.65
2019-02-26T22:14:51.400Z,46.35
2019-02-26T22:17:20.303Z,44.70
2019-02-26T22:19:49.012Z,45.25
2019-02-26T22:22:17.734Z,46.65
2019-02-26T22:24:46.428Z,43.50
2019-02-26T22:27:15.124Z,42.95
2019-02-26T22:29:47.965Z,34.48
2019-02-26T22:32:14.459Z,33.13
2019-02-26T22:34:43.155Z,31.37
2019-02-26T22:37:11.846Z,29.63
2019-02-26T22:39:40.789Z,33.08
2019-02-26T22:42:09.454Z,32.73
2019-02-26T22:44:38.395Z,29.90
2019-02-26T22:47:07.598Z,26.57
2019-02-26T22:49:36.583Z,28.25
2019-02-26T22:52:05.581Z,27.73
2019-02-26T22:57:09.041Z,25.02
2019-02-26T22:59:38.583Z,28.65
2019-02-26T23:02:09.268Z,27.70
2019-02-26T23:04:38.028Z,26.85
2019-02-26T23:07:06.768Z,26.75
2019-02-26T23:09:35.532Z,29.32
2019-02-26T23:12:05.048Z,26.50
2019-02-26T23:14:35.910Z,32.23
2019-02-26T23:17:05.763Z,29.37
2019-02-26T23:19:36.681Z,27.75
2019-02-26T23:22:04.995Z,27.90
2019-02-26T23:24:34.082Z,28.75
2019-02-26T23:27:03.520Z,30.17
2019-02-26T23:29:32.520Z,29.72
2019-02-26T23:32:01.194Z,29.12
2019-02-26T23:34:30.113Z,36.50
2019-02-26T23:37:00.968Z,30.52
2019-02-26T23:39:29.617Z,33.20
2019-02-26T23:41:58.428Z,30.88
2019-02-26T23:44:27.327Z,32.23
2019-02-26T23:46:56.008Z,31.57
2019-02-26T23:49:24.966Z,34.23
2019-02-26T23:51:54.577Z,33.85
2019-02-26T23:54:23.776Z,30.35
2019-02-26T23:56:54.790Z,34.88
2019-02-26T23:59:23.470Z,34.90
